createdAt,value
2023-02-23T00:02:09.909Z,100237.38
2023-02-23T00:04:38.324Z,100233.84
2023-02-23T00:07:06.412Z,100229.53
2023-02-23T00:09:37.750Z,100236.56
2023-02-23T00:12:08.018Z,100230.34
2023-02-23T00:14:38.254Z,100239.22
2023-02-23T00:17:13.979Z,100237.53
2023-02-23T00:19:43.560Z,100242.78
2023-02-23T00:22:12.986Z,100235.59
2023-02-23T00:24:42.529Z,100242.78
2023-02-23T00:27:13.155Z,100243.59
2023-02-23T00:29:41.216Z,100242.78
2023-02-23T00:32:09.181Z,100240.03
2023-02-23T00:34:37.505Z,100243.66
2023-02-23T00:37:08.490Z,100229.16
2023-02-23T00:39:36.253Z,100235.66
2023-02-23T00:42:06.519Z,100229.69
2023-02-23T00:44:34.824Z,100227.16
2023-02-23T00:47:04.139Z,100230.53
2023-02-23T00:49:31.979Z,100228.56
2023-02-23T00:52:00.227Z,100230.41
2023-02-23T00:54:29.462Z,100235.66
2023-02-23T00:56:57.210Z,100231.56
2023-02-23T00:59:25.087Z,100229.97
2023-02-23T01:01:52.995Z,100234.19
2023-02-23T01:04:23.179Z,100232.75
2023-02-23T01:06:51.130Z,100230.38
2023-02-23T01:09:27.908Z,100234.03
2023-02-23T01:12:01.425Z,100238.44
2023-02-23T01:14:31.138Z,100238.34
2023-02-23T01:16:59.886Z,100233.06
2023-02-23T01:19:28.502Z,100234.81
2023-02-23T01:21:56.386Z,100238.59
2023-02-23T01:24:24.442Z,100235.13
2023-02-23T01:26:52.279Z,100231.63
2023-02-23T01:29:22.593Z,100236.81
2023-02-23T01:31:51.794Z,100238.41
2023-02-23T01:34:23.984Z,100233.06
2023-02-23T01:36:52.325Z,100234.81
2023-02-23T01:39:21.359Z,100234.63
2023-02-23T01:41:51.818Z,100238.19
2023-02-23T01:45:14.827Z,100230.53
2023-02-23T01:47:44.302Z,100227.16
2023-02-23T01:50:12.192Z,100231.06
2023-02-23T01:52:39.991Z,100233.75
2023-02-23T01:55:12.901Z,100231.94
2023-02-23T01:57:42.288Z,100225.06
2023-02-23T02:00:13.061Z,100231.19
2023-02-23T02:02:41.615Z,100225.16
2023-02-23T02:05:13.300Z,100223.66
2023-02-23T02:07:48.339Z,100226.22
2023-02-23T02:10:39.675Z,100220.97
2023-02-23T02:13:14.423Z,100227.88
2023-02-23T02:16:22.729Z,100227.19
2023-02-23T02:19:18.569Z,100227.25
2023-02-23T02:22:44.854Z,100228.31
2023-02-23T02:25:36.146Z,100212.84
2023-02-23T02:28:42.022Z,100215.41
2023-02-23T02:32:02.097Z,100213.66
2023-02-23T02:35:19.083Z,100218.75
2023-02-23T02:38:05.501Z,100209.28
2023-02-23T02:40:53.264Z,100214.47
2023-02-23T02:43:33.295Z,100213.50
2023-02-23T02:46:11.525Z,100219.34
2023-02-23T02:48:48.790Z,100219.41
2023-02-23T02:51:26.008Z,100218.75
2023-02-23T02:54:06.851Z,100210.06
2023-02-23T02:56:40.641Z,100216.00
2023-02-23T02:59:33.176Z,100218.56
2023-02-23T03:02:21.176Z,100221.16
2023-02-23T03:05:07.562Z,100217.34
2023-02-23T03:08:04.734Z,100214.69
2023-02-23T03:11:05.384Z,100220.66
2023-02-23T03:14:04.453Z,100224.88
2023-02-23T03:17:03.024Z,100218.59
2023-02-23T03:19:57.407Z,100217.28
2023-02-23T03:22:53.456Z,100221.41
2023-02-23T03:25:51.453Z,100221.25
2023-02-23T03:28:51.439Z,100224.75
2023-02-23T03:31:49.646Z,100229.25
2023-02-23T03:34:46.927Z,100232.00
2023-02-23T03:37:43.828Z,100238.00
2023-02-23T03:40:38.596Z,100234.66
2023-02-23T03:43:32.187Z,100226.09
2023-02-23T03:46:24.674Z,100230.34
2023-02-23T03:49:16.414Z,100232.19
2023-02-23T03:52:12.455Z,100233.97
2023-02-23T03:55:06.623Z,100227.00
2023-02-23T03:57:56.409Z,100231.16
2023-02-23T04:00:49.050Z,100229.50
2023-02-23T04:03:40.607Z,100232.00
2023-02-23T04:06:34.139Z,100236.28
2023-02-23T04:09:26.202Z,100231.25
2023-02-23T04:12:20.927Z,100236.56
2023-02-23T04:14:59.743Z,100230.47
2023-02-23T04:17:29.752Z,100227.47
2023-02-23T04:19:59.060Z,100233.44
2023-02-23T04:22:27.009Z,100228.13
2023-02-23T04:24:54.798Z,100225.31
2023-02-23T04:27:22.681Z,100237.53
2023-02-23T04:29:50.598Z,100229.88
2023-02-23T04:32:21.001Z,100229.94
2023-02-23T04:34:49.170Z,100240.34
2023-02-23T04:37:18.843Z,100236.88
2023-02-23T04:39:50.045Z,100226.44
2023-02-23T04:42:18.342Z,100235.19
2023-02-23T04:44:46.308Z,100231.53
2023-02-23T04:47:16.143Z,100240.03
2023-02-23T04:49:44.614Z,100239.97
2023-02-23T04:52:12.723Z,100239.88
2023-02-23T04:54:41.961Z,100243.44
2023-02-23T04:57:10.454Z,100239.19
2023-02-23T04:59:38.255Z,100239.06
2023-02-23T05:02:06.470Z,100248.69
2023-02-23T05:04:37.107Z,100248.78
2023-02-23T05:07:05.949Z,100245.34
2023-02-23T05:09:34.930Z,100248.69
2023-02-23T05:12:04.796Z,100246.97
2023-02-23T05:14:32.623Z,100248.06
2023-02-23T05:17:00.635Z,100249.06
2023-02-23T05:19:28.862Z,100250.78
2023-02-23T05:21:56.784Z,100254.97
2023-02-23T05:24:25.557Z,100254.03
2023-02-23T05:26:53.799Z,100259.91
2023-02-23T05:29:23.004Z,100257.00
2023-02-23T05:31:51.084Z,100257.13
2023-02-23T05:34:18.933Z,100252.75
2023-02-23T05:36:46.885Z,100258.66
2023-02-23T05:39:14.666Z,100260.19
2023-02-23T05:41:42.455Z,100263.97
2023-02-23T05:44:10.473Z,100258.72
2023-02-23T05:46:39.915Z,100260.47
2023-02-23T05:49:07.706Z,100262.78
2023-02-23T05:51:35.874Z,100260.78
2023-02-23T05:54:04.065Z,100266.81
2023-02-23T05:56:32.268Z,100261.78
2023-02-23T05:59:00.268Z,100257.28
2023-02-23T06:01:28.671Z,100261.66
2023-02-23T06:03:58.123Z,100263.50
2023-02-23T06:06:26.864Z,100267.91
2023-02-23T06:08:54.863Z,100263.25
2023-02-23T06:11:22.835Z,100263.19
2023-02-23T06:13:50.700Z,100259.59
2023-02-23T06:16:18.609Z,100267.34
2023-02-23T06:18:46.832Z,100278.31
2023-02-23T06:21:16.034Z,100275.03
2023-02-23T06:23:44.251Z,100276.19
2023-02-23T06:26:12.045Z,100280.16
2023-02-23T06:28:39.975Z,100283.47
2023-02-23T06:31:07.901Z,100289.16
2023-02-23T06:33:35.808Z,100294.22
2023-02-23T06:36:04.644Z,100298.31
2023-02-23T06:38:33.986Z,100296.59
2023-02-23T06:41:08.626Z,100298.50
2023-02-23T06:43:36.723Z,100299.56
2023-02-23T06:46:06.129Z,100299.25
2023-02-23T06:48:35.338Z,100309.53
2023-02-23T06:51:03.274Z,100302.69
2023-02-23T06:53:31.434Z,100310.25
2023-02-23T06:56:00.566Z,100316.03
2023-02-23T06:58:28.511Z,100309.34
2023-02-23T07:00:57.267Z,100310.88
2023-02-23T07:03:25.764Z,100309.50
2023-02-23T07:05:54.322Z,100305.41
2023-02-23T07:08:23.184Z,100318.31
2023-02-23T07:10:51.014Z,100315.75
2023-02-23T07:13:21.923Z,100312.56
2023-02-23T07:15:49.908Z,100322.06
2023-02-23T07:18:17.788Z,100315.13
2023-02-23T07:20:45.683Z,100327.25
2023-02-23T07:23:13.561Z,100326.16
2023-02-23T07:25:41.348Z,100333.56
2023-02-23T07:28:09.596Z,100338.91
2023-02-23T07:30:38.811Z,100338.75
2023-02-23T07:33:06.554Z,100333.41
2023-02-23T07:35:34.430Z,100339.59
2023-02-23T07:38:02.215Z,100342.19
2023-02-23T07:40:30.253Z,100339.63
2023-02-23T07:42:58.432Z,100337.25
2023-02-23T07:45:26.890Z,100343.56
2023-02-23T07:47:56.211Z,100344.41
2023-02-23T07:50:24.008Z,100342.88
2023-02-23T07:52:52.933Z,100346.22
2023-02-23T07:55:22.530Z,100351.38
2023-02-23T07:57:50.316Z,100355.72
2023-02-23T08:00:19.218Z,100352.91
2023-02-23T08:02:47.063Z,100362.97
2023-02-23T08:05:16.473Z,100361.97
2023-02-23T08:07:44.550Z,100364.63
2023-02-23T08:10:12.845Z,100362.78
2023-02-23T08:12:40.929Z,100377.31
2023-02-23T08:15:10.477Z,100365.69
2023-02-23T08:17:39.575Z,100378.94
2023-02-23T08:20:09.680Z,100375.06
2023-02-23T08:22:48.788Z,100381.66
2023-02-23T08:25:17.905Z,100385.97
2023-02-23T08:31:11.582Z,100386.03
2023-02-23T08:33:40.292Z,100393.66
2023-02-23T08:36:09.235Z,100392.63
2023-02-23T08:38:38.635Z,100395.16
2023-02-23T08:41:06.654Z,100401.88
2023-02-23T08:43:34.511Z,100398.75
2023-02-23T08:46:02.435Z,100403.44
2023-02-23T08:48:30.406Z,100400.41
2023-02-23T08:50:59.484Z,100403.84
2023-02-23T08:53:29.583Z,100400.34
2023-02-23T08:56:01.500Z,100406.38
2023-02-23T08:58:31.144Z,100403.38
2023-02-23T09:01:00.048Z,100403.72
2023-02-23T09:03:30.634Z,100393.66
2023-02-23T09:06:06.893Z,100397.03
2023-02-23T09:08:35.459Z,100396.63
2023-02-23T09:11:05.124Z,100400.34
2023-02-23T09:13:33.397Z,100399.19
2023-02-23T09:16:01.208Z,100400.44
2023-02-23T09:18:30.710Z,100397.84
2023-02-23T09:20:59.004Z,100397.91
2023-02-23T09:23:29.334Z,100399.78
2023-02-23T09:25:57.181Z,100403.25
2023-02-23T09:28:31.167Z,100413.28
2023-02-23T09:30:59.636Z,100413.44
2023-02-23T09:33:28.407Z,100405.19
2023-02-23T09:35:56.323Z,100415.19
2023-02-23T09:38:24.604Z,100413.78
2023-02-23T09:40:54.562Z,100424.44
2023-02-23T09:43:32.181Z,100428.22
2023-02-23T09:46:22.144Z,100430.25
2023-02-23T09:48:51.465Z,100427.22
2023-02-23T09:51:23.779Z,100428.34
2023-02-23T09:53:56.045Z,100431.53
2023-02-23T09:56:33.029Z,100439.31
2023-02-23T09:59:05.497Z,100442.91
2023-02-23T10:01:58.547Z,100440.97
2023-02-23T10:04:32.516Z,100441.13
2023-02-23T10:07:09.280Z,100437.34
2023-02-23T10:10:07.338Z,100448.72
2023-02-23T10:12:50.649Z,100441.81
2023-02-23T10:15:34.567Z,100445.81
2023-02-23T10:18:19.069Z,100441.47
2023-02-23T10:20:58.131Z,100442.16
2023-02-23T10:23:34.324Z,100449.25
2023-02-23T10:26:07.636Z,100452.16
2023-02-23T10:28:37.436Z,100451.13
2023-02-23T10:31:26.792Z,100444.69
2023-02-23T10:33:58.751Z,100445.03
2023-02-23T10:36:36.311Z,100455.47
2023-02-23T10:39:08.891Z,100452.03
2023-02-23T10:41:38.693Z,100449.50
2023-02-23T10:44:17.629Z,100451.56
2023-02-23T10:46:55.707Z,100458.44
2023-02-23T10:49:37.402Z,100456.84
2023-02-23T10:52:07.316Z,100458.78
2023-02-23T10:54:44.736Z,100456.75
2023-02-23T10:57:21.962Z,100465.63
2023-02-23T11:00:08.090Z,100458.75
2023-02-23T11:02:37.991Z,100455.19
2023-02-23T11:05:07.016Z,100464.84
2023-02-23T11:07:35.037Z,100464.16
2023-02-23T11:10:26.500Z,100462.09
2023-02-23T11:12:54.557Z,100464.47
2023-02-23T11:15:48.102Z,100454.75
2023-02-23T11:18:26.249Z,100459.34
2023-02-23T11:20:55.235Z,100459.34
2023-02-23T11:23:28.966Z,100453.47
2023-02-23T11:26:01.466Z,100458.09
2023-02-23T11:28:35.872Z,100455.63
2023-02-23T11:31:21.077Z,100449.03
2023-02-23T11:33:55.729Z,100446.78
2023-02-23T11:36:29.706Z,100456.25
2023-02-23T11:39:07.710Z,100449.66
2023-02-23T11:41:37.286Z,100448.66
2023-02-23T11:44:06.642Z,100446.09
2023-02-23T11:46:39.194Z,100439.28
2023-02-23T11:49:18.757Z,100441.22
2023-02-23T11:51:50.651Z,100454.78
2023-02-23T11:54:27.603Z,100444.06
2023-02-23T11:56:58.009Z,100447.06
2023-02-23T11:59:32.339Z,100444.88
2023-02-23T12:02:22.998Z,100439.88
2023-02-23T12:05:05.005Z,100441.72
2023-02-23T12:07:41.712Z,100438.19
2023-02-23T12:10:21.961Z,100445.06
2023-02-23T12:13:04.418Z,100442.38
2023-02-23T12:15:45.704Z,100443.25
2023-02-23T12:18:38.487Z,100449.81
2023-02-23T12:21:24.945Z,100450.25
2023-02-23T12:24:06.312Z,100442.78
2023-02-23T12:26:45.234Z,100453.53
2023-02-23T12:29:30.273Z,100440.22
2023-02-23T12:32:03.173Z,100451.47
2023-02-23T12:34:43.569Z,100451.59
2023-02-23T12:37:36.909Z,100441.91
2023-02-23T12:40:16.635Z,100449.00
2023-02-23T12:42:56.604Z,100451.59
2023-02-23T12:45:35.825Z,100444.31
2023-02-23T12:48:15.691Z,100440.72
2023-02-23T12:50:53.084Z,100443.66
2023-02-23T12:53:30.948Z,100441.22
2023-02-23T12:56:19.546Z,100450.69
2023-02-23T12:59:00.034Z,100454.66
2023-02-23T13:01:36.383Z,100448.88
2023-02-23T13:04:45.708Z,100445.78
2023-02-23T13:07:22.000Z,100442.59
2023-02-23T13:10:06.647Z,100456.88
2023-02-23T13:12:53.416Z,100451.00
2023-02-23T13:15:38.087Z,100450.88
2023-02-23T13:18:15.425Z,100454.66
2023-02-23T13:20:50.024Z,100446.34
2023-02-23T13:23:30.948Z,100450.78
2023-02-23T13:26:15.738Z,100448.28
2023-02-23T13:28:56.863Z,100452.00
2023-02-23T13:31:29.406Z,100447.84
2023-02-23T13:34:00.622Z,100452.63
2023-02-23T13:36:32.620Z,100457.41
2023-02-23T13:39:30.128Z,100455.63
2023-02-23T13:42:19.315Z,100455.03
2023-02-23T13:44:58.520Z,100453.53
2023-02-23T13:47:41.574Z,100473.59
2023-02-23T13:50:22.878Z,100470.53
2023-02-23T13:52:58.381Z,100462.94
2023-02-23T13:55:49.747Z,100464.53
2023-02-23T13:58:29.044Z,100471.66
2023-02-23T14:01:14.553Z,100471.56
2023-02-23T14:03:55.531Z,100462.88
2023-02-23T14:06:27.962Z,100463.91
2023-02-23T14:09:00.923Z,100465.72
2023-02-23T14:11:41.935Z,100473.97
2023-02-23T14:14:16.838Z,100459.16
2023-02-23T14:17:26.795Z,100467.59
2023-02-23T14:20:29.332Z,100468.72
2023-02-23T14:23:29.190Z,100465.81
2023-02-23T14:26:36.124Z,100461.56
2023-02-23T14:29:25.594Z,100462.19
2023-02-23T14:32:00.998Z,100472.53
2023-02-23T14:34:51.113Z,100478.44
2023-02-23T14:37:26.329Z,100473.09
2023-02-23T14:40:04.610Z,100475.94
2023-02-23T14:42:35.390Z,100479.06
2023-02-23T14:45:17.692Z,100483.66
2023-02-23T14:47:54.101Z,100482.59
2023-02-23T14:50:28.570Z,100477.41
2023-02-23T14:52:58.467Z,100475.00
2023-02-23T14:55:29.429Z,100472.34
2023-02-23T14:57:58.322Z,100465.72
2023-02-23T15:00:32.945Z,100473.03
2023-02-23T15:03:05.157Z,100470.56
2023-02-23T15:05:41.289Z,100470.97
2023-02-23T15:08:15.853Z,100478.44
2023-02-23T15:10:47.357Z,100474.66
2023-02-23T15:13:29.140Z,100477.31
2023-02-23T15:16:05.075Z,100481.03
2023-02-23T15:18:40.165Z,100476.22
2023-02-23T15:21:13.727Z,100476.31
2023-02-23T15:23:45.665Z,100473.81
2023-02-23T15:26:24.280Z,100475.84
2023-02-23T15:28:53.313Z,100465.78
2023-02-23T15:31:22.972Z,100465.91
2023-02-23T15:33:51.423Z,100469.91
2023-02-23T15:36:29.503Z,100470.47
2023-02-23T15:39:04.993Z,100468.50
2023-02-23T15:41:36.892Z,100461.66
2023-02-23T15:44:11.959Z,100464.47
2023-02-23T15:46:44.140Z,100469.88
2023-02-23T15:49:19.312Z,100461.56
2023-02-23T15:51:52.155Z,100468.69
2023-02-23T15:54:27.136Z,100461.22
2023-02-23T15:56:58.120Z,100461.41
2023-02-23T15:59:34.594Z,100470.53
2023-02-23T16:02:16.711Z,100465.72
2023-02-23T16:04:48.788Z,100467.97
2023-02-23T16:07:20.185Z,100462.19
2023-02-23T16:09:52.441Z,100468.66
2023-02-23T16:12:29.165Z,100466.09
2023-02-23T16:15:01.440Z,100466.66
2023-02-23T16:17:42.772Z,100463.97
2023-02-23T16:20:18.738Z,100458.81
2023-02-23T16:22:53.492Z,100461.38
2023-02-23T16:25:25.712Z,100458.81
2023-02-23T16:28:01.073Z,100457.44
2023-02-23T16:30:42.968Z,100458.38
2023-02-23T16:33:22.877Z,100461.59
2023-02-23T16:35:53.537Z,100459.66
2023-02-23T16:38:27.075Z,100457.00
2023-02-23T16:40:55.090Z,100465.94
2023-02-23T16:43:22.964Z,100459.19
2023-02-23T16:45:51.094Z,100471.09
2023-02-23T16:48:20.256Z,100469.81
2023-02-23T16:50:48.890Z,100480.16
2023-02-23T16:53:17.369Z,100477.94
2023-02-23T16:55:52.123Z,100486.50
2023-02-23T16:58:23.255Z,100479.00
2023-02-23T17:00:51.945Z,100481.72
2023-02-23T17:03:24.593Z,100478.75
2023-02-23T17:05:53.784Z,100489.31
2023-02-23T17:08:21.901Z,100482.91
2023-02-23T17:10:54.550Z,100480.41
2023-02-23T17:13:24.591Z,100488.94
2023-02-23T17:15:56.232Z,100486.44
2023-02-23T17:18:29.135Z,100488.50
2023-02-23T17:21:00.281Z,100488.31
2023-02-23T17:23:38.977Z,100487.53
2023-02-23T17:26:09.304Z,100489.97
2023-02-23T17:28:38.283Z,100488.63
2023-02-23T17:31:07.523Z,100497.16
2023-02-23T17:33:40.042Z,100495.44
2023-02-23T17:36:14.797Z,100496.72
2023-02-23T17:38:45.649Z,100495.84
2023-02-23T17:41:18.218Z,100503.34
2023-02-23T17:43:46.414Z,100502.75
2023-02-23T17:46:14.507Z,100507.16
2023-02-23T17:48:44.878Z,100509.97
2023-02-23T17:51:16.207Z,100507.50
2023-02-23T17:53:44.236Z,100500.00
2023-02-23T17:56:12.343Z,100504.06
2023-02-23T17:58:40.440Z,100506.94
2023-02-23T18:01:09.802Z,100511.28
2023-02-23T18:03:38.130Z,100511.09
2023-02-23T18:06:10.117Z,100520.56
2023-02-23T18:08:40.163Z,100512.22
2023-02-23T18:11:08.292Z,100518.88
2023-02-23T18:13:36.661Z,100512.00
2023-02-23T18:16:09.309Z,100513.44
2023-02-23T18:18:41.792Z,100514.88
2023-02-23T18:21:15.121Z,100511.09
2023-02-23T18:23:43.569Z,100511.09
2023-02-23T18:26:16.008Z,100512.38
2023-02-23T18:28:45.644Z,100515.16
2023-02-23T18:31:15.656Z,100520.16
2023-02-23T18:33:44.716Z,100529.94
2023-02-23T18:36:23.194Z,100532.97
2023-02-23T18:38:51.008Z,100533.84
2023-02-23T18:41:18.938Z,100540.81
2023-02-23T18:43:47.112Z,100539.78
2023-02-23T18:46:17.155Z,100537.28
2023-02-23T18:48:48.660Z,100537.97
2023-02-23T18:51:17.817Z,100538.31
2023-02-23T18:53:47.202Z,100544.03
2023-02-23T18:56:23.165Z,100539.53
2023-02-23T18:58:53.424Z,100535.03
2023-02-23T19:01:24.530Z,100539.72
2023-02-23T19:03:55.283Z,100540.41
2023-02-23T19:06:24.869Z,100548.28
2023-02-23T19:08:57.398Z,100546.91
2023-02-23T19:11:28.179Z,100551.22
2023-02-23T19:14:05.670Z,100550.28
2023-02-23T19:16:35.815Z,100555.19
2023-02-23T19:19:11.437Z,100540.81
2023-02-23T19:21:39.992Z,100553.78
2023-02-23T19:24:09.551Z,100550.56
2023-02-23T19:26:38.560Z,100548.16
2023-02-23T19:29:07.447Z,100551.00
2023-02-23T19:31:36.719Z,100555.19
2023-02-23T19:34:08.612Z,100550.50
2023-02-23T19:36:36.922Z,100549.16
2023-02-23T19:39:10.801Z,100553.44
2023-02-23T19:41:40.657Z,100546.50
2023-02-23T19:44:09.910Z,100553.91
2023-02-23T19:46:39.887Z,100558.09
2023-02-23T19:49:07.873Z,100552.81
2023-02-23T19:51:35.894Z,100555.84
2023-02-23T19:54:04.776Z,100562.66
2023-02-23T19:56:32.611Z,100545.94
2023-02-23T19:59:02.253Z,100557.88
2023-02-23T20:01:30.545Z,100538.97
2023-02-23T20:04:06.377Z,100566.34
2023-02-23T20:06:41.382Z,100565.56
2023-02-23T20:09:09.784Z,100574.22
2023-02-23T20:11:38.376Z,100574.09
2023-02-23T20:14:08.134Z,100577.91
2023-02-23T20:16:36.518Z,100583.91
2023-02-23T20:19:06.437Z,100583.78
2023-02-23T20:21:34.746Z,100572.84
2023-02-23T20:24:05.424Z,100582.72
2023-02-23T20:26:36.891Z,100573.41
2023-02-23T20:29:14.823Z,100575.09
2023-02-23T20:31:51.399Z,100570.66
2023-02-23T20:34:24.163Z,100576.47
2023-02-23T20:36:52.535Z,100574.19
2023-02-23T20:39:20.549Z,100575.34
2023-02-23T20:41:53.464Z,100571.28
2023-02-23T20:44:24.502Z,100576.13
2023-02-23T20:46:52.415Z,100580.19
2023-02-23T20:49:22.731Z,100583.78
2023-02-23T20:51:51.057Z,100578.47
2023-02-23T20:54:18.903Z,100572.84
2023-02-23T20:56:58.725Z,100572.06
2023-02-23T20:59:31.060Z,100570.69
2023-02-23T21:02:02.107Z,100562.25
2023-02-23T21:04:30.277Z,100567.28
2023-02-23T21:06:59.485Z,100556.75
2023-02-23T21:09:27.424Z,100560.69
2023-02-23T21:11:55.419Z,100561.22
2023-02-23T21:14:23.367Z,100558.72
2023-02-23T21:16:52.578Z,100557.44
2023-02-23T21:19:21.080Z,100562.19
2023-02-23T21:21:51.315Z,100557.41
2023-02-23T21:24:20.586Z,100556.47
2023-02-23T21:26:48.431Z,100552.69
2023-02-23T21:29:17.990Z,100553.03
2023-02-23T21:31:47.061Z,100552.75
2023-02-23T21:34:19.112Z,100556.06
2023-02-23T21:36:48.032Z,100555.13
2023-02-23T21:39:15.910Z,100554.56
2023-02-23T21:41:43.802Z,100555.34
2023-02-23T21:44:11.958Z,100563.25
2023-02-23T21:46:40.422Z,100560.19
2023-02-23T21:49:09.540Z,100556.66
2023-02-23T21:51:39.592Z,100550.75
2023-02-23T21:54:07.503Z,100549.28
2023-02-23T21:56:36.722Z,100549.44
2023-02-23T21:59:08.682Z,100550.09
2023-02-23T22:01:39.516Z,100554.13
2023-02-23T22:04:13.535Z,100545.03
2023-02-23T22:06:44.875Z,100545.84
2023-02-23T22:09:15.615Z,100536.69
2023-02-23T22:11:47.127Z,100542.38
2023-02-23T22:14:16.994Z,100539.56
2023-02-23T22:16:45.722Z,100535.25
2023-02-23T22:19:13.981Z,100536.59
2023-02-23T22:21:44.542Z,100546.94
2023-02-23T22:24:14.521Z,100542.13
2023-02-23T22:26:54.824Z,100536.59
2023-02-23T22:29:25.315Z,100541.16
2023-02-23T22:31:53.627Z,100535.38
2023-02-23T22:34:22.342Z,100533.81
2023-02-23T22:36:51.616Z,100537.50
2023-02-23T22:39:19.882Z,100529.50
2023-02-23T22:41:48.444Z,100529.03
2023-02-23T22:44:21.151Z,100527.72
2023-02-23T22:46:49.571Z,100523.66
2023-02-23T22:49:19.673Z,100526.72
2023-02-23T22:51:48.482Z,100523.00
2023-02-23T22:54:17.769Z,100524.47
2023-02-23T22:56:46.778Z,100531.06
2023-02-23T22:59:17.692Z,100526.38
2023-02-23T23:01:48.727Z,100524.94
2023-02-23T23:04:17.138Z,100521.25
2023-02-23T23:06:46.195Z,100522.72
2023-02-23T23:09:16.264Z,100520.38
2023-02-23T23:11:50.843Z,100515.97
2023-02-23T23:14:19.321Z,100516.13
2023-02-23T23:16:47.966Z,100516.13
2023-02-23T23:19:19.733Z,100512.44
2023-02-23T23:21:57.304Z,100505.22
2023-02-23T23:24:25.915Z,100509.19
2023-02-23T23:26:55.771Z,100499.41
2023-02-23T23:29:25.565Z,100507.25
2023-02-23T23:31:55.213Z,100505.03
2023-02-23T23:34:23.508Z,100499.84
2023-02-23T23:36:52.879Z,100497.53
2023-02-23T23:39:23.754Z,100492.22
2023-02-23T23:41:51.970Z,100487.63
2023-02-23T23:44:24.498Z,100480.03
2023-02-23T23:46:52.644Z,100476.78
2023-02-23T23:49:25.470Z,100485.03
2023-02-23T23:51:56.486Z,100477.72
2023-02-23T23:54:28.557Z,100478.56
2023-02-23T23:56:57.412Z,100470.63
2023-02-23T23:59:27.245Z,100465.34
